Time;durP1;ratioP1;P1;durP2;ratioP2;P2;SDS_P1;SDS_P2;PMS_P1;PMS_P2;Temp;Humidity;BMP_temperature;BMP_pressure;BME280_temperature;BME280_humidity;BME280_pressure;Samples;Min_cycle;Max_cycle;Signal;HPM_P1;HPM_P2
2023/07/21 00:01:28;;;;;;;3.30;2.00;;;18.50;83.60;;;;;;5069281;28;20201;-68
2023/07/21 00:03:53;;;;;;;2.43;2.10;;;18.50;83.90;;;;;;5079018;28;20250;-68
2023/07/21 00:06:19;;;;;;;2.87;2.00;;;18.50;84.10;;;;;;5054445;28;20563;-68
2023/07/21 00:08:45;;;;;;;2.37;2.17;;;18.50;84.40;;;;;;5064762;28;20193;-69
2023/07/21 00:11:11;;;;;;;2.10;1.90;;;18.40;84.80;;;;;;5075191;28;20286;-69
2023/07/21 00:13:36;;;;;;;2.07;1.83;;;18.30;85.10;;;;;;5067373;28;20466;-70
2023/07/21 00:16:06;;;;;;;2.03;1.80;;;18.40;85.10;;;;;;5073154;28;20234;-70
2023/07/21 00:18:33;;;;;;;2.35;2.15;;;18.40;85.10;;;;;;5055950;28;20683;-70
2023/07/21 00:20:59;;;;;;;2.10;1.80;;;18.40;85.00;;;;;;5055571;28;20232;-71
2023/07/21 00:23:26;;;;;;;2.95;1.85;;;18.30;85.00;;;;;;5072822;28;20201;-71
2023/07/21 00:25:52;;;;;;;3.67;2.10;;;18.40;85.10;;;;;;5079473;28;20181;-71
2023/07/21 00:28:17;;;;;;;2.10;1.90;;;18.30;85.20;;;;;;5070506;28;20173;-71
2023/07/21 00:30:46;;;;;;;2.40;2.13;;;18.30;85.50;;;;;;5074247;28;20246;-70
2023/07/21 00:33:13;;;;;;;2.90;1.95;;;18.40;85.90;;;;;;5074932;28;20902;-70
2023/07/21 00:35:40;;;;;;;1.60;1.50;;;18.40;86.60;;;;;;5052478;28;20659;-71
2023/07/21 00:38:06;;;;;;;2.83;2.10;;;18.30;89.20;;;;;;5073275;28;20184;-70
2023/07/21 00:40:33;;;;;;;2.45;2.05;;;18.20;87.00;;;;;;5054796;28;20708;-70
2023/07/21 00:42:59;;;;;;;2.30;2.10;;;18.30;85.80;;;;;;5072345;28;20193;-71
2023/07/21 00:45:24;;;;;;;2.97;1.77;;;18.40;85.30;;;;;;5073002;28;20688;-70
2023/07/21 00:47:51;;;;;;;2.63;2.07;;;18.40;85.30;;;;;;5075866;28;20211;-70
2023/07/21 00:50:17;;;;;;;2.45;2.00;;;18.40;84.90;;;;;;5072480;28;20538;-71
2023/07/21 00:52:43;;;;;;;2.78;2.17;;;18.40;84.50;;;;;;5057520;28;20674;-71
2023/07/21 00:55:10;;;;;;;2.00;1.90;;;18.50;84.40;;;;;;5070717;28;20232;-70
2023/07/21 00:57:37;;;;;;;2.30;2.10;;;18.60;84.40;;;;;;5070690;28;20199;-71
2023/07/21 01:00:11;;;;;;;3.55;1.92;;;18.90;84.00;;;;;;5072010;28;20188;-70
2023/07/21 01:02:36;;;;;;;2.42;2.17;;;18.90;83.50;;;;;;5058489;28;20261;-70
2023/07/21 01:05:02;;;;;;;2.83;1.60;;;18.60;83.10;;;;;;5077091;28;20246;-70
2023/07/21 01:07:34;;;;;;;2.83;2.37;;;18.80;83.40;;;;;;5054351;28;20645;-70
2023/07/21 01:10:00;;;;;;;1.80;1.70;;;18.60;83.70;;;;;;5075203;28;20442;-70
2023/07/21 01:12:26;;;;;;;2.88;2.58;;;18.50;83.20;;;;;;5075443;28;20295;-70
2023/07/21 01:14:53;;;;;;;2.35;2.00;;;18.60;82.90;;;;;;5073023;28;20211;-69
2023/07/21 01:17:19;;;;;;;4.50;2.30;;;18.60;82.50;;;;;;5068017;28;20758;-70
2023/07/21 01:19:48;;;;;;;1.93;1.60;;;18.60;82.60;;;;;;5072348;28;20279;-70
2023/07/21 01:22:50;;;;;;;2.53;1.80;;;18.60;82.50;;;;;;5074356;28;20469;-70
2023/07/21 01:25:18;;;;;;;2.30;2.03;;;18.60;82.60;;;;;;5058433;28;20208;-73
2023/07/21 01:27:48;;;;;;;1.80;1.70;;;18.70;82.80;;;;;;5069248;28;20186;-71
2023/07/21 01:30:16;;;;;;;1.85;1.75;;;18.80;83.20;;;;;;5051442;28;20188;-69
2023/07/21 01:32:44;;;;;;;2.25;1.90;;;18.50;83.90;;;;;;5072682;28;20234;-69
2023/07/21 01:35:12;;;;;;;2.28;2.08;;;18.80;86.00;;;;;;5073580;28;20207;-70
2023/07/21 01:37:40;;;;;;;1.85;1.75;;;18.70;87.90;;;;;;5071725;28;20188;-69
2023/07/21 01:40:15;;;;;;;3.38;2.00;;;18.60;87.40;;;;;;5050456;28;20428;-70
2023/07/21 01:42:46;;;;;;;2.33;2.13;;;18.50;87.30;;;;;;5074695;28;20551;-69
2023/07/21 01:45:12;;;;;;;3.15;2.30;;;18.50;87.10;;;;;;5058178;28;20262;-70
2023/07/21 01:47:38;;;;;;;2.50;2.30;;;18.40;87.30;;;;;;5073155;28;20191;-70
2023/07/21 01:50:08;;;;;;;2.03;1.93;;;18.40;87.70;;;;;;5069969;28;20190;-69
2023/07/21 01:52:36;;;;;;;4.53;2.20;;;18.40;88.50;;;;;;5074169;28;20185;-69
2023/07/21 01:55:09;;;;;;;3.05;2.00;;;18.50;88.70;;;;;;5077216;28;20295;-69
2023/07/21 01:57:38;;;;;;;2.22;1.95;;;18.40;88.40;;;;;;5053161;28;20687;-69
2023/07/21 02:00:09;;;;;;;3.03;1.70;;;18.30;88.50;;;;;;5054054;28;20223;-69
2023/07/21 02:02:34;;;;;;;2.75;2.20;;;18.30;88.80;;;;;;5056342;28;20189;-69
2023/07/21 02:05:01;;;;;;;3.67;2.27;;;18.30;88.90;;;;;;5075988;28;20559;-69
2023/07/21 02:07:26;;;;;;;2.33;2.05;;;18.30;88.50;;;;;;5076313;28;20590;-69
2023/07/21 02:09:52;;;;;;;2.67;2.00;;;18.40;88.40;;;;;;5071297;28;20188;-69
2023/07/21 02:12:19;;;;;;;2.23;1.67;;;18.30;88.60;;;;;;5075309;28;20180;-70
2023/07/21 02:14:45;;;;;;;3.13;2.00;;;18.30;88.50;;;;;;5067478;28;20205;-70
2023/07/21 02:17:11;;;;;;;2.87;1.90;;;18.80;88.30;;;;;;5075906;28;20186;-70
2023/07/21 02:19:37;;;;;;;2.20;2.00;;;18.30;87.80;;;;;;5053732;28;20805;-70
2023/07/21 02:22:02;;;;;;;1.88;1.77;;;18.30;88.10;;;;;;5067073;28;20216;-69
2023/07/21 02:24:28;;;;;;;3.30;2.10;;;18.20;88.80;;;;;;5070616;28;20202;-70
2023/07/21 02:26:54;;;;;;;2.50;2.10;;;18.30;89.20;;;;;;5078579;28;20192;-69
2023/07/21 02:29:20;;;;;;;2.53;2.33;;;18.30;89.60;;;;;;5074405;28;20180;-69
2023/07/21 02:31:49;;;;;;;3.50;2.57;;;18.40;89.70;;;;;;5051183;28;21022;-70
2023/07/21 02:34:15;;;;;;;2.35;2.15;;;18.20;90.00;;;;;;5070494;28;20742;-70
2023/07/21 02:36:41;;;;;;;2.40;2.00;;;18.20;90.70;;;;;;5071445;28;20184;-69
2023/07/21 02:39:06;;;;;;;2.20;2.00;;;18.50;90.80;;;;;;5070820;28;20184;-69
2023/07/21 02:41:32;;;;;;;3.13;2.30;;;18.20;90.40;;;;;;5076532;28;20243;-70
2023/07/21 02:43:59;;;;;;;2.17;1.97;;;18.30;90.30;;;;;;5073572;28;20705;-70
2023/07/21 02:46:24;;;;;;;1.80;1.70;;;18.20;90.20;;;;;;5073473;28;20704;-69
2023/07/21 02:48:50;;;;;;;2.63;2.10;;;18.30;90.50;;;;;;5080366;28;20192;-69
2023/07/21 02:51:16;;;;;;;2.43;2.20;;;18.00;90.30;;;;;;5072429;28;20192;-69
2023/07/21 02:53:42;;;;;;;1.98;1.77;;;18.20;90.50;;;;;;5071335;28;20680;-69
2023/07/21 02:56:08;;;;;;;3.67;2.20;;;18.20;90.30;;;;;;5077822;28;20195;-70
2023/07/21 02:58:33;;;;;;;3.17;2.13;;;17.90;90.00;;;;;;5064362;28;20456;-70
2023/07/21 03:01:02;;;;;;;2.70;1.90;;;18.30;90.20;;;;;;5073621;28;20536;-69
2023/07/21 03:03:28;;;;;;;2.45;1.83;;;18.10;90.30;;;;;;5076867;28;20854;-69
2023/07/21 03:05:54;;;;;;;2.30;2.05;;;18.10;90.50;;;;;;5075573;28;20236;-69
2023/07/21 03:08:26;;;;;;;2.20;2.10;;;18.10;90.50;;;;;;5076314;28;20188;-70
2023/07/21 03:10:53;;;;;;;6.05;2.20;;;18.10;90.60;;;;;;5077492;28;20644;-69
2023/07/21 03:13:20;;;;;;;3.00;2.10;;;18.10;90.40;;;;;;5053923;28;20477;-70
2023/07/21 03:15:46;;;;;;;4.07;2.15;;;18.00;90.60;;;;;;5074568;28;20190;-70
2023/07/21 03:18:12;;;;;;;1.75;1.65;;;18.00;90.70;;;;;;5074439;28;20587;-69
2023/07/21 03:20:37;;;;;;;3.87;2.10;;;17.90;90.90;;;;;;5068724;28;20295;-70
2023/07/21 03:23:03;;;;;;;2.03;1.93;;;17.90;91.10;;;;;;5062830;28;20184;-69
2023/07/21 03:25:31;;;;;;;2.53;2.27;;;17.80;91.60;;;;;;5077041;28;20173;-69
2023/07/21 03:27:56;;;;;;;2.35;1.80;;;17.80;91.70;;;;;;5066580;28;20186;-70
2023/07/21 03:30:22;;;;;;;2.30;2.00;;;17.80;91.80;;;;;;5044059;28;20200;-69
2023/07/21 03:32:47;;;;;;;2.67;2.23;;;17.90;91.50;;;;;;5050275;28;20246;-70
2023/07/21 03:35:14;;;;;;;4.03;2.80;;;17.90;92.00;;;;;;5072578;28;20295;-70
2023/07/21 03:37:40;;;;;;;2.28;1.85;;;17.80;92.80;;;;;;5072513;28;20172;-70
2023/07/21 03:40:07;;;;;;;2.50;2.30;;;17.80;92.40;;;;;;5051889;28;20199;-69
2023/07/21 03:42:33;;;;;;;2.72;2.30;;;17.50;92.00;;;;;;5076331;28;20312;-69
2023/07/21 03:45:04;;;;;;;2.33;2.13;;;17.80;92.00;;;;;;5070952;28;20217;-69
2023/07/21 03:47:30;;;;;;;2.90;2.70;;;17.70;91.90;;;;;;5067809;28;20173;-70
2023/07/21 03:49:56;;;;;;;2.47;2.15;;;17.70;91.90;;;;;;5069853;28;20180;-70
2023/07/21 03:52:21;;;;;;;2.47;2.27;;;17.80;91.80;;;;;;5045249;28;20824;-70
2023/07/21 03:54:47;;;;;;;2.30;2.03;;;17.70;91.80;;;;;;5077909;28;20204;-70
2023/07/21 03:57:14;;;;;;;2.30;2.10;;;18.10;91.70;;;;;;5080606;28;20666;-70
2023/07/21 03:59:41;;;;;;;3.03;2.13;;;17.90;91.50;;;;;;5066546;28;20233;-69
2023/07/21 04:02:08;;;;;;;3.38;2.63;;;18.20;91.90;;;;;;5077953;28;20208;-69
2023/07/21 04:04:34;;;;;;;2.42;2.22;;;17.90;91.90;;;;;;5072920;28;21086;-70
2023/07/21 04:07:05;;;;;;;2.50;2.30;;;17.90;91.80;;;;;;5069083;28;20177;-69
2023/07/21 04:09:31;;;;;;;2.92;2.00;;;18.10;91.90;;;;;;5045672;28;20612;-71
2023/07/21 04:11:57;;;;;;;2.55;2.15;;;17.90;91.80;;;;;;5072427;28;20278;-69
2023/07/21 04:14:22;;;;;;;6.40;2.40;;;17.90;91.90;;;;;;5065020;28;20248;-72
2023/07/21 04:16:48;;;;;;;2.33;2.00;;;17.90;91.70;;;;;;5072717;28;20516;-72
2023/07/21 04:19:14;;;;;;;2.07;1.83;;;17.80;91.70;;;;;;5046209;28;20188;-72
2023/07/21 04:21:39;;;;;;;2.57;2.20;;;17.70;91.80;;;;;;5074954;28;20220;-73
2023/07/21 04:24:05;;;;;;;3.27;2.20;;;17.70;92.10;;;;;;5070050;28;20292;-72
2023/07/21 04:26:31;;;;;;;3.83;2.03;;;17.60;92.30;;;;;;5051558;28;20181;-73
2023/07/21 04:28:57;;;;;;;2.30;2.00;;;17.50;92.70;;;;;;5065838;28;20209;-72
2023/07/21 04:31:28;;;;;;;2.72;2.00;;;17.40;93.00;;;;;;5072400;28;20677;-72
2023/07/21 04:33:57;;;;;;;4.38;2.42;;;17.40;93.10;;;;;;5073101;28;20223;-73
2023/07/21 04:36:23;;;;;;;4.50;2.05;;;17.40;93.30;;;;;;5055122;28;20601;-73
2023/07/21 04:38:49;;;;;;;2.40;2.20;;;18.10;94.10;;;;;;5049132;28;20271;-73
2023/07/21 04:41:14;;;;;;;3.87;2.27;;;18.00;92.90;;;;;;5045660;28;20549;-73
2023/07/21 04:43:40;;;;;;;4.53;2.23;;;18.20;92.50;;;;;;5058074;28;20224;-73
2023/07/21 04:46:06;;;;;;;2.60;2.40;;;18.30;92.30;;;;;;5045705;28;20215;-73
2023/07/21 04:48:31;;;;;;;2.40;2.20;;;18.40;91.70;;;;;;5053813;28;20187;-73
2023/07/21 04:50:57;;;;;;;4.23;2.23;;;18.60;91.40;;;;;;5066821;28;20728;-73
2023/07/21 04:53:23;;;;;;;2.57;1.70;;;18.90;90.30;;;;;;5071347;28;20195;-73
2023/07/21 04:55:54;;;;;;;3.70;2.97;;;19.20;90.90;;;;;;5050771;28;20180;-73
2023/07/21 04:58:19;;;;;;;2.03;1.92;;;19.00;90.60;;;;;;5054952;28;20261;-73
2023/07/21 05:00:45;;;;;;;2.53;2.33;;;19.30;90.00;;;;;;5067930;28;20205;-73
2023/07/21 05:03:10;;;;;;;2.27;2.07;;;19.40;89.90;;;;;;5070276;28;20182;-73
2023/07/21 05:05:37;;;;;;;2.73;2.47;;;19.50;89.20;;;;;;5071852;28;20194;-73
2023/07/21 05:08:03;;;;;;;5.28;2.05;;;19.70;89.20;;;;;;5067489;28;20657;-73
2023/07/21 05:10:30;;;;;;;2.67;2.10;;;20.00;89.00;;;;;;5066885;28;20185;-73
2023/07/21 05:12:57;;;;;;;2.85;2.60;;;19.90;86.50;;;;;;5078831;28;20593;-73
2023/07/21 05:15:24;;;;;;;2.83;2.30;;;20.00;87.30;;;;;;5067312;28;20188;-73
2023/07/21 05:17:50;;;;;;;4.38;2.00;;;20.00;87.00;;;;;;5067154;28;20306;-73
2023/07/21 05:20:16;;;;;;;4.10;2.43;;;20.10;87.00;;;;;;5074235;28;20645;-73
2023/07/21 05:22:41;;;;;;;3.07;2.30;;;20.10;86.50;;;;;;5049872;28;20454;-73
2023/07/21 05:25:11;;;;;;;3.60;2.50;;;19.80;86.70;;;;;;5074659;28;20200;-74
2023/07/21 05:27:37;;;;;;;2.42;2.22;;;19.60;87.80;;;;;;5050947;28;20284;-73
2023/07/21 05:30:03;;;;;;;3.85;2.60;;;19.60;88.20;;;;;;5065742;28;20177;-73
2023/07/21 05:32:29;;;;;;;3.20;2.67;;;19.40;88.80;;;;;;5064895;28;20177;-73
2023/07/21 05:34:55;;;;;;;3.53;2.60;;;19.50;90.00;;;;;;5048248;28;20473;-73
2023/07/21 05:37:20;;;;;;;5.23;3.07;;;19.40;90.20;;;;;;5064612;28;20446;-73
2023/07/21 05:39:46;;;;;;;5.77;2.33;;;19.40;89.50;;;;;;5058107;28;20250;-71
2023/07/21 05:42:12;;;;;;;4.97;2.47;;;19.60;88.40;;;;;;5073967;28;20663;-73
2023/07/21 05:44:38;;;;;;;4.47;3.07;;;19.70;87.70;;;;;;5064775;28;20201;-73
2023/07/21 05:47:03;;;;;;;5.27;2.70;;;19.80;87.60;;;;;;5066231;28;20298;-72
2023/07/21 05:49:29;;;;;;;2.57;2.37;;;19.90;87.40;;;;;;5074850;28;20520;-69
2023/07/21 05:51:55;;;;;;;2.80;2.50;;;20.00;86.90;;;;;;5070391;28;20530;-68
2023/07/21 05:54:20;;;;;;;3.10;2.70;;;20.20;86.50;;;;;;5070536;28;20256;-68
2023/07/21 05:56:46;;;;;;;2.70;2.50;;;20.40;86.20;;;;;;5072079;28;20195;-68
2023/07/21 05:59:11;;;;;;;11.63;2.63;;;20.50;85.60;;;;;;5056455;28;20173;-68
2023/07/21 06:01:37;;;;;;;2.60;2.40;;;20.60;85.20;;;;;;5075869;28;20287;-68
2023/07/21 06:04:04;;;;;;;4.73;2.80;;;20.90;84.00;;;;;;5072635;28;20205;-68
2023/07/21 06:06:30;;;;;;;2.45;2.22;;;21.10;82.10;;;;;;5054296;28;20440;-68
2023/07/21 06:08:56;;;;;;;6.20;2.75;;;21.10;81.30;;;;;;5057046;28;20323;-67
2023/07/21 06:11:23;;;;;;;9.10;3.27;;;21.20;80.90;;;;;;5070614;28;20354;-68
2023/07/21 06:13:49;;;;;;;3.57;2.50;;;21.50;79.40;;;;;;5068661;28;20337;-68
2023/07/21 06:16:14;;;;;;;4.90;2.50;;;21.50;79.20;;;;;;5078532;28;20446;-68
2023/07/21 06:18:41;;;;;;;4.53;2.47;;;21.70;77.90;;;;;;5069354;28;20199;-68
2023/07/21 06:21:06;;;;;;;2.40;2.10;;;21.90;77.10;;;;;;5071216;28;20219;-66
2023/07/21 06:23:32;;;;;;;4.17;3.40;;;22.20;76.60;;;;;;5076471;28;21076;-69
2023/07/21 06:25:57;;;;;;;5.03;3.37;;;22.00;76.10;;;;;;5070217;28;20334;-67
2023/07/21 06:28:23;;;;;;;2.50;2.30;;;22.10;75.50;;;;;;5071575;28;20525;-67
2023/07/21 06:30:49;;;;;;;2.40;2.20;;;22.10;74.30;;;;;;5073143;28;20187;-73
2023/07/21 06:33:14;;;;;;;2.43;2.10;;;22.60;74.10;;;;;;5073025;28;20189;-72
2023/07/21 06:35:40;;;;;;;2.30;2.10;;;22.70;73.90;;;;;;5043943;28;20207;-75
2023/07/21 06:38:07;;;;;;;2.23;2.03;;;22.80;73.10;;;;;;5062133;28;20196;-74
2023/07/21 06:40:33;;;;;;;2.23;1.70;;;22.80;71.30;;;;;;5070666;28;20202;-75
2023/07/21 06:42:59;;;;;;;3.10;2.37;;;23.00;72.20;;;;;;5048433;28;20435;-76
2023/07/21 06:45:25;;;;;;;5.80;2.20;;;23.10;70.30;;;;;;5050132;28;20530;-74
2023/07/21 06:47:51;;;;;;;2.87;1.90;;;23.20;68.60;;;;;;5049903;28;20212;-69
2023/07/21 06:50:16;;;;;;;3.80;1.60;;;23.30;68.60;;;;;;5067468;28;20341;-75
2023/07/21 06:52:42;;;;;;;2.20;1.90;;;23.80;67.50;;;;;;5045859;28;20569;-74
2023/07/21 06:55:08;;;;;;;2.50;2.07;;;23.60;66.50;;;;;;5070831;28;20208;-77
2023/07/21 06:57:34;;;;;;;2.70;2.50;;;23.50;67.70;;;;;;5047563;28;20188;-79
2023/07/21 06:59:59;;;;;;;3.37;2.40;;;23.80;68.80;;;;;;5071741;28;20521;-76
2023/07/21 07:02:25;;;;;;;2.73;2.20;;;24.00;67.00;;;;;;5067488;28;20240;-72
2023/07/21 07:04:54;;;;;;;2.53;1.90;;;24.20;65.00;;;;;;5075774;28;20734;-73
2023/07/21 07:07:19;;;;;;;2.00;1.90;;;24.30;64.60;;;;;;5071231;28;20258;-71
2023/07/21 07:09:46;;;;;;;8.73;7.77;;;24.20;62.90;;;;;;5070150;28;20856;-75
2023/07/21 07:12:11;;;;;;;2.30;2.10;;;24.40;60.20;;;;;;5048929;28;20191;-71
2023/07/21 07:14:37;;;;;;;5.73;2.40;;;24.60;60.40;;;;;;5068852;28;20460;-74
2023/07/21 07:17:02;;;;;;;2.73;1.83;;;24.90;59.80;;;;;;5067248;28;20194;-75
2023/07/21 07:19:28;;;;;;;4.37;2.27;;;25.40;58.50;;;;;;5051789;28;20193;-73
2023/07/21 07:21:54;;;;;;;2.37;2.17;;;25.20;58.40;;;;;;5069144;28;20200;-73
2023/07/21 07:24:20;;;;;;;4.43;1.97;;;24.80;58.70;;;;;;5076685;28;20212;-73
2023/07/21 07:26:46;;;;;;;2.43;2.23;;;24.80;59.20;;;;;;5057425;28;20191;-73
2023/07/21 07:29:11;;;;;;;2.20;2.10;;;24.70;59.00;;;;;;5078500;28;20435;-73
2023/07/21 07:31:38;;;;;;;4.20;2.37;;;25.10;60.20;;;;;;5072858;28;20449;-70
2023/07/21 07:34:04;;;;;;;2.43;2.23;;;25.20;59.20;;;;;;5064270;28;20754;-71
2023/07/21 07:36:30;;;;;;;2.80;2.43;;;25.40;58.60;;;;;;5047464;28;20975;-73
2023/07/21 07:38:55;;;;;;;4.90;2.07;;;25.30;58.70;;;;;;5070697;28;20499;-70
2023/07/21 07:41:21;;;;;;;3.30;2.77;;;25.20;59.00;;;;;;5070580;28;20220;-71
2023/07/21 07:43:47;;;;;;;2.73;2.03;;;26.10;57.60;;;;;;5062875;28;20207;-73
2023/07/21 07:46:13;;;;;;;2.73;2.20;;;27.30;56.10;;;;;;5070396;28;20184;-73
2023/07/21 07:48:38;;;;;;;2.90;2.03;;;27.90;54.10;;;;;;5047830;28;20457;-74
2023/07/21 07:51:06;;;;;;;4.33;2.23;;;28.50;52.40;;;;;;5045952;28;20184;-75
2023/07/21 07:53:35;;;;;;;6.93;2.47;;;29.70;51.20;;;;;;5055352;28;20681;-72
2023/07/21 07:56:02;;;;;;;2.90;2.17;;;31.40;48.30;;;;;;5074737;28;20931;-73
2023/07/21 07:58:28;;;;;;;3.10;2.00;;;31.60;45.00;;;;;;5053658;28;20435;-75
2023/07/21 08:00:58;;;;;;;3.10;2.17;;;32.50;44.60;;;;;;5072763;28;20468;-72
2023/07/21 08:03:25;;;;;;;13.47;12.23;;;32.10;44.00;;;;;;5069397;28;20856;-73
2023/07/21 08:05:51;;;;;;;5.37;2.00;;;32.30;43.80;;;;;;5073907;28;20441;-79
2023/07/21 08:08:19;;;;;;;3.70;2.30;;;31.70;43.50;;;;;;5055244;28;20957;-77
2023/07/21 08:10:45;;;;;;;5.20;3.00;;;31.00;43.90;;;;;;5050094;28;20446;-79
2023/07/21 08:13:11;;;;;;;2.30;2.10;;;31.70;44.20;;;;;;5061370;28;20449;-77
2023/07/21 08:15:41;;;;;;;2.50;2.30;;;32.90;42.70;;;;;;5045344;28;20235;-77
2023/07/21 08:18:07;;;;;;;3.30;2.83;;;34.30;41.20;;;;;;5074065;28;20482;-77
2023/07/21 08:20:35;;;;;;;2.43;2.20;;;34.60;39.30;;;;;;5054080;28;20458;-76
2023/07/21 08:23:01;;;;;;;5.50;2.33;;;34.70;38.40;;;;;;5050847;28;20492;-76
2023/07/21 08:25:26;;;;;;;4.80;2.20;;;35.70;36.10;;;;;;5070062;28;20459;-78
2023/07/21 08:27:52;;;;;;;2.27;2.10;;;35.00;35.70;;;;;;5050249;28;20231;-79
2023/07/21 08:30:18;;;;;;;3.40;2.40;;;34.10;36.50;;;;;;5042947;28;20658;-79
2023/07/21 08:32:43;;;;;;;1.83;1.73;;;34.80;37.50;;;;;;5050703;28;20272;-78
2023/07/21 08:35:09;;;;;;;2.53;2.33;;;35.20;35.80;;;;;;5048420;28;20216;-78
2023/07/21 08:37:35;;;;;;;2.73;2.53;;;35.50;35.40;;;;;;5047698;28;20185;-77
2023/07/21 08:40:01;;;;;;;3.33;2.07;;;34.50;35.30;;;;;;5049022;28;20565;-83
2023/07/21 08:42:27;;;;;;;1.83;1.73;;;33.40;36.20;;;;;;5052328;28;20277;-75
2023/07/21 08:44:54;;;;;;;2.07;1.87;;;32.20;37.00;;;;;;5053517;28;20579;-73
2023/07/21 08:47:20;;;;;;;2.23;1.70;;;31.40;38.50;;;;;;5050337;28;21025;-71
2023/07/21 08:49:47;;;;;;;2.03;1.77;;;31.50;39.20;;;;;;5073291;28;20989;-78
2023/07/21 08:52:13;;;;;;;4.13;2.03;;;32.90;37.50;;;;;;5069235;28;20459;-75
2023/07/21 08:54:39;;;;;;;2.70;2.03;;;33.20;36.60;;;;;;5072726;28;21022;-75
2023/07/21 08:57:04;;;;;;;3.60;2.67;;;33.50;35.90;;;;;;5057243;28;20574;-81
2023/07/21 08:59:30;;;;;;;3.67;2.87;;;34.40;35.50;;;;;;5073772;28;20185;-76
2023/07/21 09:01:56;;;;;;;2.40;2.20;;;33.40;35.50;;;;;;5071237;28;20196;-72
2023/07/21 09:04:25;;;;;;;2.73;2.07;;;34.50;35.10;;;;;;5051566;28;20297;-74
2023/07/21 09:06:53;;;;;;;2.80;2.17;;;35.70;33.80;;;;;;5067448;28;20231;-68
2023/07/21 09:09:20;;;;;;;2.30;2.00;;;36.00;32.20;;;;;;5059563;28;20468;-75
2023/07/21 09:11:46;;;;;;;2.40;2.20;;;37.00;31.80;;;;;;5075173;28;20453;-68
2023/07/21 09:14:12;;;;;;;1.97;1.87;;;37.60;30.00;;;;;;5069006;28;20467;-83
2023/07/21 09:16:40;;;;;;;2.53;1.50;;;39.00;30.10;;;;;;5082778;28;20477;-81
2023/07/21 09:19:06;;;;;;;1.93;1.73;;;38.80;29.20;;;;;;5058792;28;20648;-83
2023/07/21 09:21:35;;;;;;;2.20;2.00;;;37.50;29.90;;;;;;5077142;28;20526;-83
2023/07/21 09:24:05;;;;;;;4.60;2.40;;;37.70;30.30;;;;;;5057211;28;20483;-83
2023/07/21 09:26:32;;;;;;;5.03;2.27;;;38.30;29.90;;;;;;5065252;28;20469;-76
2023/07/21 09:28:57;;;;;;;2.33;2.13;;;38.10;29.50;;;;;;5064732;28;20842;-76
2023/07/21 09:31:34;;;;;;;3.93;2.93;;;37.60;29.20;;;;;;5068503;28;20450;-75
2023/07/21 09:34:06;;;;;;;2.20;2.00;;;36.70;29.70;;;;;;5072560;28;20573;-74
2023/07/21 09:36:33;;;;;;;2.70;1.80;;;37.70;28.90;;;;;;5048445;28;20955;-75
2023/07/21 09:39:02;;;;;;;3.40;2.30;;;38.00;28.40;;;;;;5055761;28;20498;-76
2023/07/21 09:41:32;;;;;;;1.90;1.70;;;38.40;28.00;;;;;;5056979;28;20459;-78
2023/07/21 09:43:59;;;;;;;3.07;2.10;;;38.50;27.60;;;;;;5065119;28;20537;-77
2023/07/21 09:46:25;;;;;;;2.43;1.47;;;38.00;27.10;;;;;;5075252;28;21009;-77
2023/07/21 09:48:52;;;;;;;2.60;1.40;;;38.20;27.50;;;;;;5072382;28;20457;-77
2023/07/21 09:51:19;;;;;;;1.90;1.80;;;38.20;27.20;;;;;;5048043;28;20424;-76
2023/07/21 09:53:45;;;;;;;1.90;1.80;;;38.60;26.80;;;;;;5056925;28;20485;-75
2023/07/21 09:56:13;;;;;;;3.80;1.67;;;38.80;27.30;;;;;;5063991;28;20436;-78
2023/07/21 09:58:45;;;;;;;2.13;1.93;;;39.40;26.70;;;;;;5058127;28;20451;-77
2023/07/21 10:01:12;;;;;;;3.43;1.80;;;39.30;26.10;;;;;;5075693;28;20851;-78
2023/07/21 10:03:38;;;;;;;2.50;2.07;;;38.50;26.00;;;;;;5064447;28;20486;-79
2023/07/21 10:06:06;;;;;;;1.83;1.67;;;37.40;27.90;;;;;;5054670;28;20438;-78
2023/07/21 10:08:36;;;;;;;1.70;1.50;;;37.30;28.10;;;;;;5053762;28;20248;-78
2023/07/21 10:11:04;;;;;;;3.10;1.90;;;37.10;28.20;;;;;;5060881;28;20453;-78
2023/07/21 10:13:32;;;;;;;2.03;1.83;;;36.80;28.10;;;;;;5079244;28;20500;-78
2023/07/21 10:16:07;;;;;;;2.73;1.80;;;35.60;28.50;;;;;;5048137;28;20442;-77
2023/07/21 10:18:32;;;;;;;2.60;1.77;;;36.50;28.60;;;;;;5053776;28;20445;-79
2023/07/21 10:20:58;;;;;;;2.30;2.10;;;35.20;28.50;;;;;;5051855;28;20455;-79
2023/07/21 10:23:25;;;;;;;2.60;1.77;;;34.20;30.60;;;;;;5059732;28;20276;-79
2023/07/21 10:25:51;;;;;;;2.50;2.30;;;33.40;31.50;;;;;;5075426;28;20450;-80
2023/07/21 10:28:30;;;;;;;5.33;1.90;;;32.70;33.00;;;;;;5075729;28;20495;-82
2023/07/21 10:31:21;;;;;;;1.63;1.53;;;31.50;33.60;;;;;;5059474;28;20185;-78
2023/07/21 10:34:03;;;;;;;1.60;1.50;;;31.00;34.20;;;;;;5053520;28;20465;-81
2023/07/21 10:36:42;;;;;;;2.27;2.10;;;30.70;35.20;;;;;;5055311;28;20448;-80
2023/07/21 10:39:11;;;;;;;2.63;2.37;;;29.80;37.10;;;;;;5051972;28;20526;-79
2023/07/21 10:41:38;;;;;;;1.70;1.50;;;29.50;37.20;;;;;;5078266;28;20518;-82
2023/07/21 10:44:08;;;;;;;4.23;1.50;;;29.40;37.20;;;;;;5054707;28;20562;-82
2023/07/21 10:46:38;;;;;;;2.33;2.00;;;29.30;37.30;;;;;;5048732;28;20473;-77
2023/07/21 10:49:04;;;;;;;2.20;1.93;;;29.10;37.60;;;;;;5068186;28;20478;-76
2023/07/21 10:51:30;;;;;;;2.83;2.00;;;28.90;38.20;;;;;;5062387;28;20533;-77
2023/07/21 10:53:56;;;;;;;3.90;2.00;;;28.70;38.40;;;;;;5066891;28;20498;-76
2023/07/21 10:56:22;;;;;;;3.40;1.87;;;28.20;38.80;;;;;;5071422;28;20286;-72
2023/07/21 10:58:52;;;;;;;4.00;1.87;;;28.40;39.50;;;;;;5064429;28;20294;-72
2023/07/21 11:01:19;;;;;;;2.13;1.93;;;28.50;39.00;;;;;;5054196;28;20523;-71
2023/07/21 11:03:48;;;;;;;3.67;2.47;;;28.70;38.80;;;;;;5075133;28;20468;-71
2023/07/21 11:06:15;;;;;;;3.87;2.73;;;28.80;39.10;;;;;;5077914;28;20451;-71
2023/07/21 11:08:40;;;;;;;2.73;2.10;;;28.60;39.00;;;;;;5071124;28;20521;-71
2023/07/21 11:11:08;;;;;;;2.87;2.20;;;29.70;38.40;;;;;;5070735;28;20534;-71
2023/07/21 11:13:34;;;;;;;4.73;2.33;;;31.00;36.70;;;;;;5071727;28;20409;-71
2023/07/21 11:16:00;;;;;;;3.60;2.00;;;32.00;35.60;;;;;;5070965;28;20537;-71
2023/07/21 11:18:28;;;;;;;2.33;2.13;;;32.40;34.20;;;;;;5079089;28;20231;-72
2023/07/21 11:20:55;;;;;;;2.40;2.10;;;31.80;35.20;;;;;;5067871;28;20548;-72
2023/07/21 11:23:21;;;;;;;3.30;2.40;;;31.40;35.30;;;;;;5059720;28;20481;-72
2023/07/21 11:26:09;;;;;;;2.10;1.90;;;32.00;35.30;;;;;;5077932;28;20802;-71
2023/07/21 11:28:37;;;;;;;3.73;2.20;;;32.70;34.10;;;;;;5077289;28;20481;-71
2023/07/21 11:31:09;;;;;;;2.87;2.67;;;33.30;33.60;;;;;;5072820;28;20439;-71
2023/07/21 11:33:48;;;;;;;3.00;2.40;;;33.30;33.70;;;;;;5076370;28;20458;-72
2023/07/21 11:36:18;;;;;;;2.17;2.03;;;32.80;34.00;;;;;;5071075;28;20552;-71
2023/07/21 11:39:04;;;;;;;2.60;2.40;;;32.00;34.00;;;;;;5075550;28;20838;-72
2023/07/21 11:41:33;;;;;;;4.03;2.20;;;31.10;35.50;;;;;;5076577;28;20483;-71
2023/07/21 11:43:59;;;;;;;2.90;2.13;;;30.20;36.60;;;;;;5072308;28;20498;-71
2023/07/21 11:46:25;;;;;;;8.30;6.00;;;29.60;37.60;;;;;;5079544;28;20518;-71
2023/07/21 11:48:51;;;;;;;2.63;2.43;;;29.20;38.40;;;;;;5053763;28;20207;-71
2023/07/21 11:51:17;;;;;;;2.43;2.23;;;28.90;38.90;;;;;;5077700;28;20213;-72
2023/07/21 11:53:48;;;;;;;4.30;2.30;;;27.70;40.00;;;;;;5063210;28;20973;-72
2023/07/21 11:56:15;;;;;;;3.43;1.90;;;27.10;41.80;;;;;;5063349;28;20246;-70
2023/07/21 11:58:41;;;;;;;3.10;2.23;;;27.10;41.80;;;;;;5057262;28;20459;-71
2023/07/21 12:01:07;;;;;;;2.60;2.40;;;27.00;43.00;;;;;;5055315;28;20517;-71
2023/07/21 12:03:36;;;;;;;4.90;3.37;;;26.90;43.10;;;;;;5056603;28;20525;-71
2023/07/21 12:06:06;;;;;;;7.00;2.73;;;26.80;43.80;;;;;;5055237;28;20450;-71
2023/07/21 12:08:32;;;;;;;4.37;2.70;;;26.50;46.40;;;;;;5058416;28;20447;-71
2023/07/21 12:10:58;;;;;;;2.30;2.10;;;26.20;46.80;;;;;;5063505;28;20598;-72
2023/07/21 12:13:24;;;;;;;2.63;2.10;;;26.20;50.30;;;;;;5057699;28;20521;-71
2023/07/21 12:15:50;;;;;;;2.30;1.97;;;26.10;51.00;;;;;;5055885;28;23009;-71
2023/07/21 12:18:16;;;;;;;1.90;1.80;;;26.60;48.70;;;;;;5065647;28;20482;-71
2023/07/21 12:20:41;;;;;;;2.47;2.20;;;26.20;48.40;;;;;;5057481;28;20541;-72
2023/07/21 12:23:08;;;;;;;1.93;1.80;;;26.10;51.30;;;;;;5059134;28;20195;-71
2023/07/21 12:25:34;;;;;;;2.40;1.60;;;26.00;50.70;;;;;;5062669;28;20187;-72
2023/07/21 12:28:00;;;;;;;3.60;2.00;;;26.40;54.20;;;;;;5059638;28;20481;-71
2023/07/21 12:30:25;;;;;;;2.53;2.33;;;25.70;56.50;;;;;;5062343;28;20867;-71
2023/07/21 12:32:51;;;;;;;2.60;2.00;;;25.50;58.60;;;;;;5057605;28;20660;-71
2023/07/21 12:35:17;;;;;;;2.60;2.23;;;25.20;59.00;;;;;;5054566;28;20227;-71
2023/07/21 12:37:42;;;;;;;2.93;2.20;;;25.00;59.80;;;;;;5056852;28;20274;-71
2023/07/21 12:40:12;;;;;;;2.27;2.07;;;24.70;59.80;;;;;;5054578;28;20193;-71
2023/07/21 12:42:39;;;;;;;3.53;2.17;;;24.50;60.80;;;;;;5037367;28;20303;-71
2023/07/21 12:45:06;;;;;;;3.23;1.93;;;24.40;61.00;;;;;;5059056;28;20466;-71